sensor_id;sensor_type;location;lat;lon;timestamp;P1;durP1;ratioP1;P2;durP2;ratioP2
15915;SDS011;8057;47.830;-3.870;2022-09-01T00:01:03;7.30;;;6.07;;
15915;SDS011;8057;47.830;-3.870;2022-09-01T00:05:14;7.97;;;7.10;;
15915;SDS011;8057;47.830;-3.870;2022-09-01T00:09:27;9.17;;;8.37;;
15915;SDS011;8057;47.830;-3.870;2022-09-01T00:13:36;8.80;;;7.97;;
15915;SDS011;8057;47.830;-3.870;2022-09-01T00:17:46;8.30;;;7.60;;
15915;SDS011;8057;47.830;-3.870;2022-09-01T00:21:55;9.67;;;8.77;;
15915;SDS011;8057;47.830;-3.870;2022-09-01T00:26:06;10.33;;;8.70;;
15915;SDS011;8057;47.830;-3.870;2022-09-01T00:30:16;9.50;;;8.70;;
15915;SDS011;8057;47.830;-3.870;2022-09-01T00:34:26;8.43;;;7.80;;
15915;SDS011;8057;47.830;-3.870;2022-09-01T00:38:36;8.03;;;7.33;;
15915;SDS011;8057;47.830;-3.870;2022-09-01T00:42:47;10.50;;;7.90;;
15915;SDS011;8057;47.830;-3.870;2022-09-01T00:46:56;8.47;;;7.73;;
15915;SDS011;8057;47.830;-3.870;2022-09-01T00:51:06;8.53;;;7.63;;
15915;SDS011;8057;47.830;-3.870;2022-09-01T00:55:22;7.67;;;6.90;;
15915;SDS011;8057;47.830;-3.870;2022-09-01T00:59:35;9.53;;;8.33;;
15915;SDS011;8057;47.830;-3.870;2022-09-01T01:03:52;8.47;;;7.60;;
15915;SDS011;8057;47.830;-3.870;2022-09-01T01:08:03;9.43;;;8.33;;
15915;SDS011;8057;47.830;-3.870;2022-09-01T01:12:14;11.07;;;9.50;;
15915;SDS011;8057;47.830;-3.870;2022-09-01T01:16:27;9.30;;;8.40;;
15915;SDS011;8057;47.830;-3.870;2022-09-01T01:20:36;10.07;;;9.17;;
15915;SDS011;8057;47.830;-3.870;2022-09-01T01:25:05;11.30;;;10.20;;
15915;SDS011;8057;47.830;-3.870;2022-09-01T01:29:15;12.03;;;9.57;;
15915;SDS011;8057;47.830;-3.870;2022-09-01T01:33:26;9.43;;;8.50;;
15915;SDS011;8057;47.830;-3.870;2022-09-01T01:37:37;10.50;;;9.40;;
15915;SDS011;8057;47.830;-3.870;2022-09-01T01:41:48;11.77;;;9.77;;
15915;SDS011;8057;47.830;-3.870;2022-09-01T01:45:58;9.77;;;8.70;;
15915;SDS011;8057;47.830;-3.870;2022-09-01T01:50:09;12.30;;;9.03;;
15915;SDS011;8057;47.830;-3.870;2022-09-01T01:54:18;8.57;;;7.47;;
15915;SDS011;8057;47.830;-3.870;2022-09-01T01:58:30;8.43;;;7.03;;
15915;SDS011;8057;47.830;-3.870;2022-09-01T02:02:40;10.57;;;8.60;;
15915;SDS011;8057;47.830;-3.870;2022-09-01T02:06:54;10.20;;;8.80;;
15915;SDS011;8057;47.830;-3.870;2022-09-01T02:11:04;9.30;;;7.30;;
15915;SDS011;8057;47.830;-3.870;2022-09-01T02:15:16;8.47;;;7.70;;
15915;SDS011;8057;47.830;-3.870;2022-09-01T02:19:25;7.83;;;7.13;;
15915;SDS011;8057;47.830;-3.870;2022-09-01T02:23:35;10.47;;;7.80;;
15915;SDS011;8057;47.830;-3.870;2022-09-01T02:27:50;8.23;;;7.00;;
15915;SDS011;8057;47.830;-3.870;2022-09-01T02:32:03;8.37;;;7.50;;
15915;SDS011;8057;47.830;-3.870;2022-09-01T02:36:14;8.97;;;7.57;;
15915;SDS011;8057;47.830;-3.870;2022-09-01T02:40:26;6.77;;;6.17;;
15915;SDS011;8057;47.830;-3.870;2022-09-01T02:44:37;6.57;;;5.97;;
15915;SDS011;8057;47.830;-3.870;2022-09-01T02:48:48;8.03;;;7.33;;
15915;SDS011;8057;47.830;-3.870;2022-09-01T02:52:58;7.83;;;7.13;;
15915;SDS011;8057;47.830;-3.870;2022-09-01T02:57:09;6.83;;;6.23;;
15915;SDS011;8057;47.830;-3.870;2022-09-01T03:01:20;9.80;;;7.70;;
15915;SDS011;8057;47.830;-3.870;2022-09-01T03:05:33;11.13;;;9.33;;
15915;SDS011;8057;47.830;-3.870;2022-09-01T03:09:45;9.70;;;8.70;;
15915;SDS011;8057;47.830;-3.870;2022-09-01T03:13:54;10.87;;;8.07;;
15915;SDS011;8057;47.830;-3.870;2022-09-01T03:18:04;7.33;;;6.67;;
15915;SDS011;8057;47.830;-3.870;2022-09-01T03:22:17;10.57;;;9.40;;
15915;SDS011;8057;47.830;-3.870;2022-09-01T03:26:28;9.23;;;8.10;;
15915;SDS011;8057;47.830;-3.870;2022-09-01T03:30:42;9.87;;;8.83;;
15915;SDS011;8057;47.830;-3.870;2022-09-01T03:34:53;11.47;;;9.17;;
15915;SDS011;8057;47.830;-3.870;2022-09-01T03:39:04;9.37;;;8.33;;
15915;SDS011;8057;47.830;-3.870;2022-09-01T03:43:22;10.60;;;8.73;;
15915;SDS011;8057;47.830;-3.870;2022-09-01T03:47:42;8.73;;;7.80;;
15915;SDS011;8057;47.830;-3.870;2022-09-01T03:51:53;10.37;;;7.97;;
15915;SDS011;8057;47.830;-3.870;2022-09-01T03:56:06;9.63;;;7.30;;
15915;SDS011;8057;47.830;-3.870;2022-09-01T04:00:17;8.57;;;7.03;;
15915;SDS011;8057;47.830;-3.870;2022-09-01T04:04:30;8.63;;;7.90;;
15915;SDS011;8057;47.830;-3.870;2022-09-01T04:08:39;10.67;;;9.57;;
15915;SDS011;8057;47.830;-3.870;2022-09-01T04:12:50;9.83;;;8.93;;
15915;SDS011;8057;47.830;-3.870;2022-09-01T04:17:02;10.33;;;9.33;;
15915;SDS011;8057;47.830;-3.870;2022-09-01T04:21:35;10.37;;;9.47;;
15915;SDS011;8057;47.830;-3.870;2022-09-01T04:25:45;9.67;;;8.87;;
15915;SDS011;8057;47.830;-3.870;2022-09-01T04:29:58;9.30;;;8.47;;
15915;SDS011;8057;47.830;-3.870;2022-09-01T04:34:07;8.23;;;7.53;;
15915;SDS011;8057;47.830;-3.870;2022-09-01T04:38:20;8.83;;;7.97;;
15915;SDS011;8057;47.830;-3.870;2022-09-01T04:42:30;10.83;;;9.83;;
15915;SDS011;8057;47.830;-3.870;2022-09-01T04:46:42;10.13;;;9.27;;
15915;SDS011;8057;47.830;-3.870;2022-09-01T04:50:54;9.50;;;8.63;;
15915;SDS011;8057;47.830;-3.870;2022-09-01T04:55:04;9.27;;;8.43;;
15915;SDS011;8057;47.830;-3.870;2022-09-01T04:59:15;10.07;;;8.43;;
15915;SDS011;8057;47.830;-3.870;2022-09-01T05:03:28;9.80;;;8.90;;
15915;SDS011;8057;47.830;-3.870;2022-09-01T05:07:38;9.90;;;9.00;;
15915;SDS011;8057;47.830;-3.870;2022-09-01T05:11:49;9.63;;;8.63;;
15915;SDS011;8057;47.830;-3.870;2022-09-01T05:15:59;9.90;;;9.10;;
15915;SDS011;8057;47.830;-3.870;2022-09-01T05:20:13;10.97;;;9.53;;
15915;SDS011;8057;47.830;-3.870;2022-09-01T05:24:23;10.23;;;9.23;;
15915;SDS011;8057;47.830;-3.870;2022-09-01T05:28:48;11.00;;;9.70;;
15915;SDS011;8057;47.830;-3.870;2022-09-01T05:33:00;11.57;;;9.27;;
15915;SDS011;8057;47.830;-3.870;2022-09-01T05:37:12;9.87;;;8.97;;
15915;SDS011;8057;47.830;-3.870;2022-09-01T05:41:22;10.00;;;9.23;;
15915;SDS011;8057;47.830;-3.870;2022-09-01T05:45:34;9.87;;;9.07;;
15915;SDS011;8057;47.830;-3.870;2022-09-01T05:50:05;8.40;;;7.60;;
15915;SDS011;8057;47.830;-3.870;2022-09-01T05:54:23;10.43;;;9.43;;
15915;SDS011;8057;47.830;-3.870;2022-09-01T05:58:34;9.60;;;8.03;;
15915;SDS011;8057;47.830;-3.870;2022-09-01T06:03:07;8.97;;;8.03;;
15915;SDS011;8057;47.830;-3.870;2022-09-01T06:07:18;11.53;;;10.50;;
15915;SDS011;8057;47.830;-3.870;2022-09-01T06:11:32;11.30;;;10.17;;
15915;SDS011;8057;47.830;-3.870;2022-09-01T06:15:42;11.67;;;10.47;;
15915;SDS011;8057;47.830;-3.870;2022-09-01T06:19:52;13.03;;;11.57;;
15915;SDS011;8057;47.830;-3.870;2022-09-01T06:24:03;12.17;;;11.17;;
15915;SDS011;8057;47.830;-3.870;2022-09-01T06:28:15;11.80;;;10.60;;
15915;SDS011;8057;47.830;-3.870;2022-09-01T06:32:29;12.10;;;10.97;;
15915;SDS011;8057;47.830;-3.870;2022-09-01T06:36:40;14.23;;;12.83;;
15915;SDS011;8057;47.830;-3.870;2022-09-01T06:40:57;12.27;;;11.17;;
15915;SDS011;8057;47.830;-3.870;2022-09-01T06:45:10;14.33;;;13.13;;
15915;SDS011;8057;47.830;-3.870;2022-09-01T06:49:21;15.17;;;13.47;;
15915;SDS011;8057;47.830;-3.870;2022-09-01T06:53:40;12.40;;;11.40;;
15915;SDS011;8057;47.830;-3.870;2022-09-01T06:57:51;12.07;;;10.97;;
15915;SDS011;8057;47.830;-3.870;2022-09-01T07:02:22;12.80;;;11.70;;
15915;SDS011;8057;47.830;-3.870;2022-09-01T07:06:33;11.60;;;10.50;;
15915;SDS011;8057;47.830;-3.870;2022-09-01T07:11:04;13.77;;;12.37;;
15915;SDS011;8057;47.830;-3.870;2022-09-01T07:15:37;13.17;;;11.97;;
15915;SDS011;8057;47.830;-3.870;2022-09-01T07:20:10;10.97;;;9.87;;
15915;SDS011;8057;47.830;-3.870;2022-09-01T07:24:31;10.60;;;9.73;;
15915;SDS011;8057;47.830;-3.870;2022-09-01T07:28:42;11.20;;;10.20;;
15915;SDS011;8057;47.830;-3.870;2022-09-01T07:32:53;11.60;;;10.43;;
15915;SDS011;8057;47.830;-3.870;2022-09-01T07:37:25;11.60;;;10.50;;
15915;SDS011;8057;47.830;-3.870;2022-09-01T07:41:55;10.93;;;9.83;;
15915;SDS011;8057;47.830;-3.870;2022-09-01T07:46:35;12.73;;;11.43;;
15915;SDS011;8057;47.830;-3.870;2022-09-01T07:50:49;9.60;;;8.77;;
15915;SDS011;8057;47.830;-3.870;2022-09-01T07:55:27;10.20;;;9.23;;
15915;SDS011;8057;47.830;-3.870;2022-09-01T07:59:38;8.77;;;8.07;;
15915;SDS011;8057;47.830;-3.870;2022-09-01T08:03:52;10.57;;;9.70;;
15915;SDS011;8057;47.830;-3.870;2022-09-01T08:08:04;10.37;;;9.43;;
15915;SDS011;8057;47.830;-3.870;2022-09-01T08:12:36;8.20;;;7.43;;
15915;SDS011;8057;47.830;-3.870;2022-09-01T08:16:47;9.53;;;7.87;;
15915;SDS011;8057;47.830;-3.870;2022-09-01T08:20:59;9.30;;;7.33;;
15915;SDS011;8057;47.830;-3.870;2022-09-01T08:25:14;7.80;;;7.20;;
15915;SDS011;8057;47.830;-3.870;2022-09-01T08:29:32;8.07;;;7.33;;
15915;SDS011;8057;47.830;-3.870;2022-09-01T08:33:42;7.10;;;6.50;;
15915;SDS011;8057;47.830;-3.870;2022-09-01T08:37:55;7.20;;;6.60;;
15915;SDS011;8057;47.830;-3.870;2022-09-01T08:42:12;6.23;;;5.73;;
15915;SDS011;8057;47.830;-3.870;2022-09-01T08:46:42;5.57;;;5.03;;
15915;SDS011;8057;47.830;-3.870;2022-09-01T08:51:07;6.33;;;5.83;;
15915;SDS011;8057;47.830;-3.870;2022-09-01T08:55:27;7.40;;;6.70;;
15915;SDS011;8057;47.830;-3.870;2022-09-01T08:59:50;6.90;;;6.30;;
15915;SDS011;8057;47.830;-3.870;2022-09-01T09:04:10;6.37;;;5.77;;
15915;SDS011;8057;47.830;-3.870;2022-09-01T09:08:47;5.73;;;5.10;;
15915;SDS011;8057;47.830;-3.870;2022-09-01T09:13:03;6.20;;;5.70;;
15915;SDS011;8057;47.830;-3.870;2022-09-01T09:17:22;5.30;;;4.80;;
15915;SDS011;8057;47.830;-3.870;2022-09-01T09:21:37;5.17;;;4.77;;
15915;SDS011;8057;47.830;-3.870;2022-09-01T09:25:47;6.17;;;5.33;;
15915;SDS011;8057;47.830;-3.870;2022-09-01T09:29:58;5.10;;;4.57;;
15915;SDS011;8057;47.830;-3.870;2022-09-01T09:34:15;5.43;;;4.53;;
15915;SDS011;8057;47.830;-3.870;2022-09-01T09:38:37;5.20;;;4.47;;
15915;SDS011;8057;47.830;-3.870;2022-09-01T09:43:00;6.43;;;5.13;;
15915;SDS011;8057;47.830;-3.870;2022-09-01T09:51:52;5.20;;;4.70;;
15915;SDS011;8057;47.830;-3.870;2022-09-01T09:56:07;5.37;;;4.43;;
15915;SDS011;8057;47.830;-3.870;2022-09-01T10:00:26;6.20;;;4.30;;
15915;SDS011;8057;47.830;-3.870;2022-09-01T10:04:37;5.20;;;4.70;;
15915;SDS011;8057;47.830;-3.870;2022-09-01T10:08:47;4.80;;;4.37;;
15915;SDS011;8057;47.830;-3.870;2022-09-01T10:12:58;6.43;;;4.90;;
15915;SDS011;8057;47.830;-3.870;2022-09-01T10:17:08;6.67;;;5.40;;
15915;SDS011;8057;47.830;-3.870;2022-09-01T10:21:22;6.73;;;6.10;;
15915;SDS011;8057;47.830;-3.870;2022-09-01T10:25:40;8.07;;;7.37;;
15915;SDS011;8057;47.830;-3.870;2022-09-01T10:29:55;9.07;;;8.17;;
15915;SDS011;8057;47.830;-3.870;2022-09-01T10:34:26;7.90;;;6.97;;
15915;SDS011;8057;47.830;-3.870;2022-09-01T10:38:42;8.67;;;7.80;;
15915;SDS011;8057;47.830;-3.870;2022-09-01T10:47:33;6.80;;;6.10;;
15915;SDS011;8057;47.830;-3.870;2022-09-01T10:51:44;7.70;;;6.90;;
15915;SDS011;8057;47.830;-3.870;2022-09-01T10:55:59;7.13;;;6.43;;
15915;SDS011;8057;47.830;-3.870;2022-09-01T11:00:51;7.80;;;7.00;;
15915;SDS011;8057;47.830;-3.870;2022-09-01T11:05:24;7.00;;;6.30;;
15915;SDS011;8057;47.830;-3.870;2022-09-01T11:09:39;8.13;;;6.50;;
15915;SDS011;8057;47.830;-3.870;2022-09-01T11:13:51;7.87;;;6.37;;
15915;SDS011;8057;47.830;-3.870;2022-09-01T11:18:06;7.53;;;6.87;;
15915;SDS011;8057;47.830;-3.870;2022-09-01T11:22:25;8.70;;;7.83;;
15915;SDS011;8057;47.830;-3.870;2022-09-01T11:26:44;10.27;;;7.57;;
15915;SDS011;8057;47.830;-3.870;2022-09-01T11:35:49;8.63;;;7.47;;
15915;SDS011;8057;47.830;-3.870;2022-09-01T11:40:10;9.43;;;8.53;;
15915;SDS011;8057;47.830;-3.870;2022-09-01T11:44:29;9.17;;;8.47;;
15915;SDS011;8057;47.830;-3.870;2022-09-01T11:48:44;10.90;;;10.00;;
15915;SDS011;8057;47.830;-3.870;2022-09-01T11:52:58;9.97;;;9.07;;
15915;SDS011;8057;47.830;-3.870;2022-09-01T11:57:29;10.00;;;9.20;;
15915;SDS011;8057;47.830;-3.870;2022-09-01T12:01:40;10.67;;;9.77;;
15915;SDS011;8057;47.830;-3.870;2022-09-01T12:05:52;10.73;;;9.67;;
15915;SDS011;8057;47.830;-3.870;2022-09-01T12:10:19;10.40;;;9.10;;
15915;SDS011;8057;47.830;-3.870;2022-09-01T12:14:55;15.10;;;10.23;;
15915;SDS011;8057;47.830;-3.870;2022-09-01T12:19:21;10.83;;;8.87;;
15915;SDS011;8057;47.830;-3.870;2022-09-01T12:23:33;12.00;;;8.87;;
15915;SDS011;8057;47.830;-3.870;2022-09-01T12:27:47;10.23;;;9.37;;
15915;SDS011;8057;47.830;-3.870;2022-09-01T12:31:59;12.50;;;9.23;;
15915;SDS011;8057;47.830;-3.870;2022-09-01T12:36:13;10.90;;;9.33;;
15915;SDS011;8057;47.830;-3.870;2022-09-01T12:40:30;10.07;;;9.13;;
15915;SDS011;8057;47.830;-3.870;2022-09-01T12:44:42;12.23;;;8.57;;
15915;SDS011;8057;47.830;-3.870;2022-09-01T12:48:57;13.43;;;9.97;;
15915;SDS011;8057;47.830;-3.870;2022-09-01T12:53:30;8.73;;;7.83;;
15915;SDS011;8057;47.830;-3.870;2022-09-01T12:57:49;10.00;;;7.70;;
15915;SDS011;8057;47.830;-3.870;2022-09-01T13:06:37;9.67;;;7.67;;
15915;SDS011;8057;47.830;-3.870;2022-09-01T13:10:48;8.33;;;7.23;;
15915;SDS011;8057;47.830;-3.870;2022-09-01T13:15:00;9.43;;;7.30;;
15915;SDS011;8057;47.830;-3.870;2022-09-01T13:19:10;8.63;;;6.77;;
15915;SDS011;8057;47.830;-3.870;2022-09-01T13:23:34;8.83;;;7.17;;
15915;SDS011;8057;47.830;-3.870;2022-09-01T13:27:44;9.60;;;6.37;;
15915;SDS011;8057;47.830;-3.870;2022-09-01T13:31:55;8.27;;;5.50;;
15915;SDS011;8057;47.830;-3.870;2022-09-01T13:36:24;5.10;;;4.60;;
15915;SDS011;8057;47.830;-3.870;2022-09-01T13:40:55;4.93;;;4.43;;
15915;SDS011;8057;47.830;-3.870;2022-09-01T13:45:06;5.63;;;3.87;;
15915;SDS011;8057;47.830;-3.870;2022-09-01T13:49:19;5.57;;;3.00;;
15915;SDS011;8057;47.830;-3.870;2022-09-01T13:53:52;3.70;;;2.50;;
15915;SDS011;8057;47.830;-3.870;2022-09-01T14:02:57;2.77;;;1.40;;
15915;SDS011;8057;47.830;-3.870;2022-09-01T14:07:21;3.93;;;1.83;;
15915;SDS011;8057;47.830;-3.870;2022-09-01T14:11:33;2.43;;;1.50;;
15915;SDS011;8057;47.830;-3.870;2022-09-01T14:15:45;3.10;;;1.77;;
15915;SDS011;8057;47.830;-3.870;2022-09-01T14:19:55;2.33;;;1.60;;
15915;SDS011;8057;47.830;-3.870;2022-09-01T14:24:34;2.67;;;1.77;;
15915;SDS011;8057;47.830;-3.870;2022-09-01T14:29:18;4.23;;;1.80;;
15915;SDS011;8057;47.830;-3.870;2022-09-01T14:34:06;4.30;;;2.03;;
15915;SDS011;8057;47.830;-3.870;2022-09-01T14:38:18;4.23;;;2.27;;
15915;SDS011;8057;47.830;-3.870;2022-09-01T14:42:28;4.13;;;2.53;;
15915;SDS011;8057;47.830;-3.870;2022-09-01T14:46:38;4.10;;;2.73;;
15915;SDS011;8057;47.830;-3.870;2022-09-01T14:50:49;3.63;;;2.13;;
15915;SDS011;8057;47.830;-3.870;2022-09-01T14:55:01;3.57;;;2.20;;
15915;SDS011;8057;47.830;-3.870;2022-09-01T14:59:40;5.13;;;2.10;;
15915;SDS011;8057;47.830;-3.870;2022-09-01T15:03:51;4.77;;;2.57;;
15915;SDS011;8057;47.830;-3.870;2022-09-01T15:08:03;5.07;;;2.90;;
15915;SDS011;8057;47.830;-3.870;2022-09-01T15:12:13;4.77;;;3.17;;
15915;SDS011;8057;47.830;-3.870;2022-09-01T15:16:24;5.77;;;3.10;;
15915;SDS011;8057;47.830;-3.870;2022-09-01T15:20:37;3.63;;;3.10;;
15915;SDS011;8057;47.830;-3.870;2022-09-01T15:24:56;8.13;;;3.43;;
15915;SDS011;8057;47.830;-3.870;2022-09-01T15:29:07;5.77;;;3.13;;
15915;SDS011;8057;47.830;-3.870;2022-09-01T15:33:19;5.47;;;3.03;;
15915;SDS011;8057;47.830;-3.870;2022-09-01T15:37:31;6.63;;;3.23;;
15915;SDS011;8057;47.830;-3.870;2022-09-01T15:41:42;4.83;;;3.27;;
15915;SDS011;8057;47.830;-3.870;2022-09-01T15:45:53;5.70;;;3.40;;
15915;SDS011;8057;47.830;-3.870;2022-09-01T15:50:04;6.03;;;3.43;;
15915;SDS011;8057;47.830;-3.870;2022-09-01T15:54:22;4.50;;;2.83;;
15915;SDS011;8057;47.830;-3.870;2022-09-01T15:58:37;3.37;;;3.07;;
15915;SDS011;8057;47.830;-3.870;2022-09-01T16:03:06;4.90;;;3.50;;
15915;SDS011;8057;47.830;-3.870;2022-09-01T16:07:16;5.27;;;3.80;;
15915;SDS011;8057;47.830;-3.870;2022-09-01T16:11:25;5.37;;;3.60;;
15915;SDS011;8057;47.830;-3.870;2022-09-01T16:15:36;7.33;;;3.97;;
15915;SDS011;8057;47.830;-3.870;2022-09-01T16:19:53;6.47;;;3.67;;
15915;SDS011;8057;47.830;-3.870;2022-09-01T16:24:08;6.50;;;4.47;;
15915;SDS011;8057;47.830;-3.870;2022-09-01T16:28:21;5.93;;;3.53;;
15915;SDS011;8057;47.830;-3.870;2022-09-01T16:32:36;7.03;;;4.00;;
15915;SDS011;8057;47.830;-3.870;2022-09-01T16:36:52;6.23;;;3.47;;
15915;SDS011;8057;47.830;-3.870;2022-09-01T16:41:09;7.53;;;3.97;;
15915;SDS011;8057;47.830;-3.870;2022-09-01T16:45:29;4.10;;;3.17;;
15915;SDS011;8057;47.830;-3.870;2022-09-01T16:49:51;5.03;;;3.60;;
15915;SDS011;8057;47.830;-3.870;2022-09-01T16:54:12;6.50;;;3.00;;
15915;SDS011;8057;47.830;-3.870;2022-09-01T16:58:34;3.70;;;3.00;;
15915;SDS011;8057;47.830;-3.870;2022-09-01T17:02:54;5.83;;;3.00;;
15915;SDS011;8057;47.830;-3.870;2022-09-01T17:07:24;3.87;;;2.73;;
15915;SDS011;8057;47.830;-3.870;2022-09-01T17:11:39;4.60;;;2.77;;
15915;SDS011;8057;47.830;-3.870;2022-09-01T17:15:58;6.07;;;2.97;;
15915;SDS011;8057;47.830;-3.870;2022-09-01T17:20:14;7.07;;;2.73;;
15915;SDS011;8057;47.830;-3.870;2022-09-01T18:06:26;2.67;;;2.43;;
15915;SDS011;8057;47.830;-3.870;2022-09-01T18:10:40;3.00;;;2.30;;
15915;SDS011;8057;47.830;-3.870;2022-09-01T18:15:24;4.47;;;2.77;;
15915;SDS011;8057;47.830;-3.870;2022-09-01T18:19:57;3.40;;;2.80;;
15915;SDS011;8057;47.830;-3.870;2022-09-01T18:24:33;4.77;;;2.93;;
15915;SDS011;8057;47.830;-3.870;2022-09-01T18:28:51;4.83;;;3.97;;
15915;SDS011;8057;47.830;-3.870;2022-09-01T18:33:01;4.37;;;3.50;;
15915;SDS011;8057;47.830;-3.870;2022-09-01T18:37:34;4.20;;;3.80;;
15915;SDS011;8057;47.830;-3.870;2022-09-01T18:42:18;5.17;;;3.27;;
15915;SDS011;8057;47.830;-3.870;2022-09-01T18:46:38;3.50;;;3.17;;
15915;SDS011;8057;47.830;-3.870;2022-09-01T18:51:10;3.80;;;3.43;;
15915;SDS011;8057;47.830;-3.870;2022-09-01T18:55:30;4.50;;;4.10;;
15915;SDS011;8057;47.830;-3.870;2022-09-01T18:59:51;4.77;;;4.03;;
15915;SDS011;8057;47.830;-3.870;2022-09-01T19:04:38;5.47;;;4.13;;
15915;SDS011;8057;47.830;-3.870;2022-09-01T19:13:50;6.97;;;3.73;;
15915;SDS011;8057;47.830;-3.870;2022-09-01T19:18:40;4.40;;;3.47;;
15915;SDS011;8057;47.830;-3.870;2022-09-01T19:23:43;3.77;;;3.47;;
15915;SDS011;8057;47.830;-3.870;2022-09-01T19:39:27;3.60;;;3.30;;
15915;SDS011;8057;47.830;-3.870;2022-09-01T19:44:24;3.77;;;3.47;;
15915;SDS011;8057;47.830;-3.870;2022-09-01T19:49:07;3.83;;;3.50;;
15915;SDS011;8057;47.830;-3.870;2022-09-01T19:53:57;3.80;;;3.50;;
15915;SDS011;8057;47.830;-3.870;2022-09-01T20:03:56;3.70;;;3.40;;
15915;SDS011;8057;47.830;-3.870;2022-09-01T20:08:28;3.70;;;3.40;;
15915;SDS011;8057;47.830;-3.870;2022-09-01T20:12:47;4.90;;;4.50;;
15915;SDS011;8057;47.830;-3.870;2022-09-01T20:17:04;6.47;;;4.40;;
15915;SDS011;8057;47.830;-3.870;2022-09-01T20:21:17;4.00;;;3.70;;
15915;SDS011;8057;47.830;-3.870;2022-09-01T20:25:31;4.00;;;3.33;;
15915;SDS011;8057;47.830;-3.870;2022-09-01T20:29:49;4.33;;;3.93;;
15915;SDS011;8057;47.830;-3.870;2022-09-01T20:34:05;3.57;;;3.30;;
15915;SDS011;8057;47.830;-3.870;2022-09-01T20:38:45;3.60;;;3.30;;
15915;SDS011;8057;47.830;-3.870;2022-09-01T20:43:17;3.50;;;3.20;;
15915;SDS011;8057;47.830;-3.870;2022-09-01T20:47:31;5.37;;;3.73;;
15915;SDS011;8057;47.830;-3.870;2022-09-01T20:51:43;3.20;;;3.00;;
15915;SDS011;8057;47.830;-3.870;2022-09-01T20:56:04;3.60;;;3.40;;
15915;SDS011;8057;47.830;-3.870;2022-09-01T21:00:23;3.73;;;3.53;;
15915;SDS011;8057;47.830;-3.870;2022-09-01T21:04:37;3.87;;;3.57;;
15915;SDS011;8057;47.830;-3.870;2022-09-01T21:08:55;3.93;;;3.63;;
15915;SDS011;8057;47.830;-3.870;2022-09-01T21:13:14;4.33;;;3.47;;
15915;SDS011;8057;47.830;-3.870;2022-09-01T21:17:33;3.33;;;3.07;;
15915;SDS011;8057;47.830;-3.870;2022-09-01T21:21:52;3.60;;;3.40;;
15915;SDS011;8057;47.830;-3.870;2022-09-01T21:26:12;4.73;;;3.90;;
15915;SDS011;8057;47.830;-3.870;2022-09-01T21:30:24;3.37;;;3.10;;
15915;SDS011;8057;47.830;-3.870;2022-09-01T21:34:37;2.90;;;2.70;;
15915;SDS011;8057;47.830;-3.870;2022-09-01T21:43:11;4.07;;;3.73;;
15915;SDS011;8057;47.830;-3.870;2022-09-01T21:47:48;3.43;;;3.23;;
15915;SDS011;8057;47.830;-3.870;2022-09-01T21:51:59;2.93;;;2.73;;
15915;SDS011;8057;47.830;-3.870;2022-09-01T21:56:08;3.37;;;3.17;;
15915;SDS011;8057;47.830;-3.870;2022-09-01T22:00:20;3.73;;;3.43;;
15915;SDS011;8057;47.830;-3.870;2022-09-01T22:04:47;3.50;;;3.30;;
15915;SDS011;8057;47.830;-3.870;2022-09-01T22:09:02;2.63;;;2.53;;
15915;SDS011;8057;47.830;-3.870;2022-09-01T22:13:27;3.80;;;3.50;;
15915;SDS011;8057;47.830;-3.870;2022-09-01T22:17:37;4.10;;;3.70;;
15915;SDS011;8057;47.830;-3.870;2022-09-01T22:21:48;3.50;;;3.20;;
15915;SDS011;8057;47.830;-3.870;2022-09-01T22:25:57;4.00;;;3.70;;
15915;SDS011;8057;47.830;-3.870;2022-09-01T22:30:07;4.20;;;3.80;;
15915;SDS011;8057;47.830;-3.870;2022-09-01T22:34:18;3.73;;;3.47;;
15915;SDS011;8057;47.830;-3.870;2022-09-01T22:38:29;4.80;;;4.40;;
15915;SDS011;8057;47.830;-3.870;2022-09-01T22:42:38;3.63;;;3.43;;
15915;SDS011;8057;47.830;-3.870;2022-09-01T22:46:47;4.57;;;4.27;;
15915;SDS011;8057;47.830;-3.870;2022-09-01T22:50:56;4.30;;;3.90;;
15915;SDS011;8057;47.830;-3.870;2022-09-01T22:55:13;4.90;;;4.47;;
15915;SDS011;8057;47.830;-3.870;2022-09-01T22:59:22;5.57;;;5.17;;
15915;SDS011;8057;47.830;-3.870;2022-09-01T23:03:32;4.30;;;4.00;;
15915;SDS011;8057;47.830;-3.870;2022-09-01T23:07:41;4.33;;;4.03;;
15915;SDS011;8057;47.830;-3.870;2022-09-01T23:11:51;5.00;;;4.60;;
15915;SDS011;8057;47.830;-3.870;2022-09-01T23:16:01;4.73;;;4.40;;
15915;SDS011;8057;47.830;-3.870;2022-09-01T23:20:12;4.23;;;4.03;;
15915;SDS011;8057;47.830;-3.870;2022-09-01T23:24:21;3.70;;;3.40;;
15915;SDS011;8057;47.830;-3.870;2022-09-01T23:28:32;3.70;;;3.50;;
15915;SDS011;8057;47.830;-3.870;2022-09-01T23:32:43;4.57;;;4.17;;
15915;SDS011;8057;47.830;-3.870;2022-09-01T23:36:52;3.30;;;3.10;;
15915;SDS011;8057;47.830;-3.870;2022-09-01T23:41:03;4.53;;;4.13;;
15915;SDS011;8057;47.830;-3.870;2022-09-01T23:45:15;4.53;;;4.13;;
15915;SDS011;8057;47.830;-3.870;2022-09-01T23:49:24;4.57;;;4.10;;
15915;SDS011;8057;47.830;-3.870;2022-09-01T23:53:34;4.63;;;4.27;;
15915;SDS011;8057;47.830;-3.870;2022-09-01T23:57:44;4.40;;;4.10;;
